createdAt,value
2022-11-05T00:01:24.634Z,86.77
2022-11-05T00:04:46.877Z,86.92
2022-11-05T00:08:10.651Z,86.69
2022-11-05T00:11:17.885Z,86.68
2022-11-05T00:14:39.524Z,86.53
2022-11-05T00:17:42.600Z,86.55
2022-11-05T00:20:44.640Z,87.28
2022-11-05T00:24:05.510Z,88.89
2022-11-05T00:27:08.174Z,89.18
2022-11-05T00:30:12.518Z,88.90
2022-11-05T00:33:16.092Z,88.73
2022-11-05T00:36:32.294Z,89.64
2022-11-05T00:39:34.570Z,89.90
2022-11-05T00:42:55.487Z,89.38
2022-11-05T00:45:57.926Z,89.96
2022-11-05T00:49:19.753Z,89.66
2022-11-05T00:52:41.169Z,88.47
2022-11-05T00:55:46.575Z,89.26
2022-11-05T00:58:50.115Z,88.49
2022-11-05T01:01:53.710Z,89.14
2022-11-05T01:04:55.751Z,89.01
2022-11-05T01:07:58.696Z,88.52
2022-11-05T01:11:00.938Z,88.60
2022-11-05T01:14:08.667Z,89.75
2022-11-05T01:17:10.731Z,89.16
2022-11-05T01:20:12.943Z,89.50
2022-11-05T01:23:15.468Z,89.70
2022-11-05T01:26:17.884Z,89.67
2022-11-05T01:29:20.077Z,90.45
2022-11-05T01:32:22.236Z,90.69
2022-11-05T01:35:24.287Z,89.44
2022-11-05T01:38:26.473Z,89.53
2022-11-05T01:41:28.535Z,89.12
2022-11-05T01:44:56.802Z,88.66
2022-11-05T01:48:05.878Z,88.63
2022-11-05T01:51:14.709Z,88.77
2022-11-05T01:54:20.983Z,88.94
2022-11-05T01:57:23.192Z,89.20
2022-11-05T02:00:25.267Z,89.17
2022-11-05T02:03:28.582Z,90.38
2022-11-05T02:06:38.045Z,90.51
2022-11-05T02:09:52.379Z,90.12
2022-11-05T02:12:54.907Z,91.07
2022-11-05T02:16:12.902Z,90.30
2022-11-05T02:19:53.843Z,90.49
2022-11-05T02:23:49.241Z,91.24
2022-11-05T02:27:19.210Z,90.90
2022-11-05T02:31:07.519Z,89.85
2022-11-05T02:34:44.268Z,90.25
2022-11-05T02:37:54.460Z,90.17
2022-11-05T02:41:06.827Z,90.30
2022-11-05T02:44:19.763Z,89.52
2022-11-05T02:48:12.907Z,90.00
2022-11-05T02:51:26.897Z,90.50
2022-11-05T02:54:43.664Z,91.08
2022-11-05T02:57:47.728Z,90.46
2022-11-05T03:00:57.106Z,90.96
2022-11-05T03:04:06.519Z,90.64
2022-11-05T03:07:36.569Z,90.99
2022-11-05T03:11:01.467Z,90.69
2022-11-05T03:14:15.274Z,90.49
2022-11-05T03:17:35.421Z,90.41
2022-11-05T03:21:02.261Z,90.08
2022-11-05T03:24:13.576Z,89.70
2022-11-05T03:27:20.138Z,89.28
2022-11-05T03:30:22.513Z,90.10
2022-11-05T03:33:29.755Z,89.66
2022-11-05T03:36:39.753Z,89.98
2022-11-05T03:39:52.251Z,90.28
2022-11-05T03:42:58.134Z,91.05
2022-11-05T03:46:05.672Z,90.98
2022-11-05T03:49:16.033Z,91.70
2022-11-05T03:52:22.086Z,91.05
2022-11-05T03:55:32.727Z,91.19
2022-11-05T03:58:36.469Z,91.38
2022-11-05T04:01:40.255Z,90.53
2022-11-05T04:04:46.014Z,91.10
2022-11-05T04:08:13.912Z,90.48
2022-11-05T04:11:35.330Z,90.94
2022-11-05T04:14:39.627Z,90.88
2022-11-05T04:17:41.872Z,89.97
2022-11-05T04:21:02.807Z,90.56
2022-11-05T04:24:13.454Z,90.33
2022-11-05T04:27:15.639Z,90.44
2022-11-05T04:30:19.229Z,91.69
2022-11-05T04:33:21.702Z,92.21
2022-11-05T04:36:23.861Z,91.50
2022-11-05T04:39:26.051Z,91.40
2022-11-05T04:42:28.474Z,91.32
2022-11-05T04:45:35.962Z,91.62
2022-11-05T04:48:38.050Z,91.52
2022-11-05T04:51:43.864Z,91.34
2022-11-05T04:54:46.159Z,91.42
2022-11-05T04:57:52.659Z,91.31
2022-11-05T05:00:54.901Z,90.87
2022-11-05T05:03:59.022Z,89.61
2022-11-05T05:07:02.409Z,86.65
2022-11-05T05:10:06.054Z,85.62
2022-11-05T05:13:10.692Z,85.55
2022-11-05T05:16:27.651Z,88.36
2022-11-05T05:19:30.173Z,89.52
2022-11-05T05:22:32.439Z,91.70
2022-11-05T05:25:35.318Z,91.52
2022-11-05T05:28:37.510Z,92.05
2022-11-05T05:31:40.203Z,92.09
2022-11-05T05:34:42.327Z,91.08
2022-11-05T05:37:44.514Z,90.89
2022-11-05T05:40:46.992Z,90.33
2022-11-05T05:43:49.123Z,89.16
2022-11-05T05:46:51.218Z,87.93
2022-11-05T05:49:53.562Z,85.43
2022-11-05T05:52:55.678Z,87.18
2022-11-05T05:55:58.563Z,87.66
2022-11-05T05:59:00.828Z,86.83
2022-11-05T06:02:03.460Z,85.89
2022-11-05T06:05:08.247Z,84.64
2022-11-05T06:08:13.334Z,85.77
2022-11-05T06:11:16.188Z,85.65
2022-11-05T06:14:18.368Z,85.15
2022-11-05T06:17:20.584Z,84.89
2022-11-05T06:20:24.060Z,84.90
2022-11-05T06:23:26.250Z,85.54
2022-11-05T06:26:28.768Z,87.01
2022-11-05T06:29:30.946Z,87.54
2022-11-05T06:32:34.141Z,85.70
2022-11-05T06:35:40.632Z,86.72
2022-11-05T06:38:45.843Z,87.19
2022-11-05T06:42:16.662Z,88.57
2022-11-05T06:45:13.594Z,89.68
2022-11-05T06:48:16.530Z,89.36
2022-11-05T06:51:21.798Z,89.43
2022-11-05T06:54:28.440Z,88.74
2022-11-05T06:57:30.824Z,89.04
2022-11-05T07:01:03.066Z,89.05
2022-11-05T07:04:08.214Z,89.99
2022-11-05T07:07:10.588Z,89.99
2022-11-05T07:10:20.441Z,89.72
2022-11-05T07:13:22.601Z,89.79
2022-11-05T07:16:31.856Z,88.69
2022-11-05T07:19:33.923Z,88.91
2022-11-05T07:22:36.612Z,88.04
2022-11-05T07:25:39.237Z,86.78
2022-11-05T07:28:51.966Z,86.48
2022-11-05T07:31:57.059Z,85.78
2022-11-05T07:34:59.245Z,86.42
2022-11-05T07:38:08.852Z,86.98
2022-11-05T07:41:10.843Z,86.35
2022-11-05T07:44:14.495Z,85.70
2022-11-05T07:47:16.764Z,85.37
2022-11-05T07:50:26.564Z,84.79
2022-11-05T07:53:28.675Z,85.01
2022-11-05T07:56:33.455Z,85.44
2022-11-05T07:59:36.783Z,86.51
2022-11-05T08:02:40.235Z,86.28
2022-11-05T08:05:46.089Z,86.00
2022-11-05T08:08:48.253Z,86.50
2022-11-05T08:11:52.907Z,87.05
2022-11-05T08:14:58.719Z,86.69
2022-11-05T08:18:11.791Z,86.92
2022-11-05T08:21:14.052Z,86.19
2022-11-05T08:24:16.171Z,85.74
2022-11-05T08:27:18.267Z,85.91
2022-11-05T08:30:21.946Z,86.87
2022-11-05T08:33:27.731Z,86.53
2022-11-05T08:36:32.747Z,85.61
2022-11-05T08:39:34.892Z,85.96
2022-11-05T08:42:41.261Z,85.80
2022-11-05T08:45:43.456Z,84.83
2022-11-05T08:48:45.888Z,84.35
2022-11-05T08:51:48.131Z,83.11
2022-11-05T08:54:50.360Z,83.21
2022-11-05T08:58:00.618Z,82.40
2022-11-05T09:01:05.589Z,82.05
2022-11-05T09:04:10.495Z,82.51
2022-11-05T09:07:12.612Z,83.39
2022-11-05T09:10:14.869Z,81.47
2022-11-05T09:13:23.873Z,81.37
2022-11-05T09:16:37.065Z,80.62
2022-11-05T09:19:40.014Z,81.05
2022-11-05T09:22:43.603Z,80.43
2022-11-05T09:25:46.308Z,80.06
2022-11-05T09:28:48.429Z,80.88
2022-11-05T09:31:50.405Z,80.99
2022-11-05T09:34:52.441Z,79.37
2022-11-05T09:37:59.750Z,80.05
2022-11-05T09:41:05.009Z,80.10
2022-11-05T09:44:20.995Z,79.88
2022-11-05T09:47:44.767Z,78.75
2022-11-05T09:50:46.900Z,79.15
2022-11-05T09:53:49.908Z,79.42
2022-11-05T09:57:43.656Z,79.72
2022-11-05T10:00:25.557Z,78.66
2022-11-05T10:03:30.196Z,78.09
2022-11-05T10:06:32.345Z,79.16
2022-11-05T10:09:45.386Z,78.10
2022-11-05T10:12:53.077Z,76.83
2022-11-05T10:16:02.752Z,78.03
2022-11-05T10:19:22.221Z,77.61
2022-11-05T10:22:25.417Z,76.39
2022-11-05T10:25:33.220Z,77.27
2022-11-05T10:28:36.073Z,78.34
2022-11-05T10:31:38.202Z,77.24
2022-11-05T10:34:44.085Z,77.53
2022-11-05T10:37:51.165Z,76.72
2022-11-05T10:41:15.619Z,76.98
2022-11-05T10:44:23.288Z,77.27
2022-11-05T10:48:01.361Z,76.90
2022-11-05T10:51:03.493Z,77.38
2022-11-05T10:54:38.347Z,77.91
2022-11-05T10:57:41.623Z,77.32
2022-11-05T11:04:41.242Z,76.54
2022-11-05T11:07:58.211Z,77.87
2022-11-05T11:11:07.848Z,76.66
2022-11-05T11:14:12.827Z,77.35
2022-11-05T11:17:32.536Z,76.63
2022-11-05T11:20:34.737Z,77.20
2022-11-05T11:23:39.347Z,77.51
2022-11-05T11:26:42.377Z,77.66
2022-11-05T11:29:56.766Z,77.31
2022-11-05T11:33:12.073Z,77.96
2022-11-05T11:36:26.506Z,78.06
2022-11-05T11:39:35.217Z,76.72
2022-11-05T11:42:41.054Z,77.11
2022-11-05T11:45:49.832Z,77.19
2022-11-05T11:48:51.932Z,77.33
2022-11-05T11:52:11.275Z,76.88
2022-11-05T11:55:18.654Z,77.53
2022-11-05T11:58:23.505Z,77.31
2022-11-05T12:01:59.568Z,77.01
2022-11-05T12:05:38.218Z,77.43
2022-11-05T12:09:13.153Z,76.69
2022-11-05T12:12:17.991Z,76.32
2022-11-05T12:15:57.952Z,75.67
2022-11-05T12:19:21.185Z,76.13
2022-11-05T12:22:31.294Z,75.46
2022-11-05T12:25:44.347Z,75.49
2022-11-05T12:29:18.318Z,76.25
2022-11-05T12:32:35.631Z,74.62
2022-11-05T12:36:05.196Z,74.88
2022-11-05T12:39:20.489Z,75.85
2022-11-05T12:42:28.536Z,75.50
2022-11-05T12:45:43.486Z,75.46
2022-11-05T12:49:09.235Z,75.08
2022-11-05T12:52:50.262Z,74.68
2022-11-05T12:55:59.591Z,75.36
2022-11-05T12:59:30.348Z,75.34
2022-11-05T13:02:38.544Z,75.02
2022-11-05T13:05:47.310Z,74.51
2022-11-05T13:09:07.470Z,74.48
2022-11-05T13:12:16.919Z,74.83
2022-11-05T13:15:44.042Z,75.04
2022-11-05T13:19:05.761Z,75.66
2022-11-05T13:22:46.313Z,75.88
2022-11-05T13:26:26.385Z,75.65
2022-11-05T13:34:24.855Z,74.35
2022-11-05T13:37:50.315Z,74.18
2022-11-05T13:41:20.758Z,74.41
2022-11-05T13:44:48.501Z,74.92
2022-11-05T13:48:25.362Z,74.97
2022-11-05T13:51:48.575Z,74.86
2022-11-05T13:55:17.202Z,74.40
2022-11-05T13:59:05.221Z,74.65
2022-11-05T14:02:22.194Z,74.30
2022-11-05T14:05:39.909Z,74.28
2022-11-05T14:13:34.171Z,73.90
2022-11-05T14:17:15.099Z,74.11
2022-11-05T14:20:32.602Z,74.24
2022-11-05T14:23:40.730Z,73.76
2022-11-05T14:27:08.322Z,74.17
2022-11-05T14:30:47.607Z,74.05
2022-11-05T14:34:12.822Z,73.86
2022-11-05T14:37:37.816Z,73.64
2022-11-05T14:40:42.942Z,73.06
2022-11-05T14:44:09.131Z,72.75
2022-11-05T14:47:24.197Z,73.18
2022-11-05T14:50:43.017Z,72.69
2022-11-05T14:53:47.861Z,73.15
2022-11-05T14:57:02.672Z,73.14
2022-11-05T15:00:25.654Z,73.19
2022-11-05T15:03:45.342Z,73.00
2022-11-05T15:07:05.999Z,72.79
2022-11-05T15:10:18.413Z,72.77
2022-11-05T15:14:34.772Z,72.83
2022-11-05T15:21:17.626Z,72.36
2022-11-05T15:28:09.904Z,72.34
2022-11-05T15:31:36.607Z,72.21
2022-11-05T15:34:52.831Z,72.33
2022-11-05T15:38:34.760Z,72.38
2022-11-05T15:41:36.855Z,71.96
2022-11-05T15:44:41.147Z,71.43
2022-11-05T15:47:46.568Z,71.42
2022-11-05T15:50:55.385Z,71.17
2022-11-05T15:54:29.158Z,71.35
2022-11-05T15:57:40.466Z,70.64
2022-11-05T16:04:20.041Z,71.01
2022-11-05T16:07:25.953Z,70.92
2022-11-05T16:10:33.892Z,70.79
2022-11-05T16:13:45.961Z,71.10
2022-11-05T16:16:48.288Z,70.22
2022-11-05T16:19:51.096Z,70.40
2022-11-05T16:22:56.120Z,70.79
2022-11-05T16:25:59.006Z,70.47
2022-11-05T16:29:10.542Z,70.27
2022-11-05T16:32:19.381Z,69.76
2022-11-05T16:35:28.153Z,69.66
2022-11-05T16:38:30.274Z,69.37
2022-11-05T16:41:32.610Z,69.23
2022-11-05T16:44:37.779Z,69.00
2022-11-05T16:47:39.895Z,68.80
2022-11-05T16:50:42.701Z,69.13
2022-11-05T16:53:44.854Z,68.24
2022-11-05T16:56:50.412Z,68.58
2022-11-05T16:59:54.253Z,68.47
2022-11-05T17:02:56.598Z,68.35
2022-11-05T17:05:58.817Z,68.60
2022-11-05T17:09:00.978Z,69.31
2022-11-05T17:12:03.490Z,68.78
2022-11-05T17:15:26.619Z,68.15
2022-11-05T17:18:28.600Z,68.71
2022-11-05T17:21:30.633Z,68.68
2022-11-05T17:24:32.856Z,68.52
2022-11-05T17:27:34.915Z,68.28
2022-11-05T17:30:41.147Z,67.91
2022-11-05T17:33:44.331Z,67.83
2022-11-05T17:36:46.354Z,67.80
2022-11-05T17:39:48.425Z,68.39
2022-11-05T17:42:51.716Z,68.56
2022-11-05T17:45:53.719Z,68.12
2022-11-05T17:48:55.772Z,67.58
2022-11-05T17:51:57.752Z,68.15
2022-11-05T17:54:59.747Z,67.89
2022-11-05T17:58:14.934Z,67.95
2022-11-05T18:01:43.657Z,67.96
2022-11-05T18:04:50.933Z,68.82
2022-11-05T18:07:53.313Z,70.06
2022-11-05T18:10:57.218Z,70.72
2022-11-05T18:14:01.575Z,69.62
2022-11-05T18:17:09.495Z,68.56
2022-11-05T18:21:02.730Z,68.38
2022-11-05T18:24:08.712Z,68.56
2022-11-05T18:27:20.317Z,67.25
2022-11-05T18:30:51.171Z,66.99
2022-11-05T18:38:01.556Z,69.78
2022-11-05T18:45:15.918Z,70.88
2022-11-05T18:48:19.107Z,70.40
2022-11-05T18:51:22.979Z,71.00
2022-11-05T18:54:25.405Z,71.36
2022-11-05T18:57:48.000Z,71.79
2022-11-05T19:00:52.036Z,72.46
2022-11-05T19:04:22.630Z,74.16
2022-11-05T19:07:37.232Z,74.26
2022-11-05T19:11:49.789Z,73.40
2022-11-05T19:14:57.936Z,73.87
2022-11-05T19:18:05.744Z,73.86
2022-11-05T19:21:18.702Z,74.36
2022-11-05T19:24:32.735Z,74.69
2022-11-05T19:27:58.381Z,75.56
2022-11-05T19:31:00.663Z,75.00
2022-11-05T19:34:05.666Z,75.60
2022-11-05T19:37:41.546Z,75.94
2022-11-05T19:40:43.799Z,75.80
2022-11-05T19:43:46.557Z,76.42
2022-11-05T19:46:48.643Z,75.87
2022-11-05T19:49:50.705Z,76.39
2022-11-05T19:52:52.781Z,77.40
2022-11-05T19:56:02.580Z,77.45
2022-11-05T20:00:40.880Z,77.19
2022-11-05T20:04:14.833Z,76.91
2022-11-05T20:07:21.475Z,77.02
2022-11-05T20:10:30.151Z,77.84
2022-11-05T20:13:33.342Z,78.45
2022-11-05T20:16:41.560Z,79.43
2022-11-05T20:24:24.355Z,81.11
2022-11-05T20:27:35.520Z,81.36
2022-11-05T20:34:45.574Z,82.75
2022-11-05T20:37:54.081Z,84.23
2022-11-05T20:41:22.071Z,83.82
2022-11-05T20:44:24.779Z,84.15
2022-11-05T20:47:28.071Z,84.34
2022-11-05T20:50:31.183Z,88.21
2022-11-05T20:56:57.271Z,88.48
2022-11-05T20:59:59.305Z,87.93
2022-11-05T21:03:02.088Z,87.71
2022-11-05T21:06:09.115Z,88.59
2022-11-05T21:09:11.465Z,90.62
2022-11-05T21:13:30.535Z,90.17
2022-11-05T21:16:35.622Z,89.86
2022-11-05T21:19:40.425Z,93.05
2022-11-05T21:22:46.188Z,91.64
2022-11-05T21:25:51.918Z,92.46
2022-11-05T21:28:53.899Z,92.37
2022-11-05T21:32:00.939Z,93.56
2022-11-05T21:35:06.878Z,94.32
2022-11-05T21:38:08.889Z,94.85
2022-11-05T21:41:17.434Z,91.85
2022-11-05T21:44:25.147Z,88.90
2022-11-05T21:47:31.709Z,86.49
2022-11-05T21:51:00.223Z,84.77
2022-11-05T21:54:22.510Z,83.27
2022-11-05T21:57:44.030Z,82.12
2022-11-05T22:00:46.075Z,80.73
2022-11-05T22:03:48.060Z,79.96
2022-11-05T22:06:50.028Z,81.02
2022-11-05T22:09:52.545Z,80.50
2022-11-05T22:12:54.768Z,79.81
2022-11-05T22:15:57.253Z,79.96
2022-11-05T22:18:59.981Z,79.04
2022-11-05T22:22:02.485Z,79.80
2022-11-05T22:25:04.889Z,80.08
2022-11-05T22:28:07.071Z,79.71
2022-11-05T22:31:13.989Z,79.74
2022-11-05T22:34:16.112Z,79.60
2022-11-05T22:37:18.252Z,79.74
2022-11-05T22:40:23.707Z,79.06
2022-11-05T22:43:26.267Z,79.17
2022-11-05T22:46:28.407Z,78.77
2022-11-05T22:49:33.633Z,79.08
2022-11-05T22:52:36.383Z,79.28
2022-11-05T22:55:41.500Z,78.98
2022-11-05T22:58:43.882Z,78.66
2022-11-05T23:01:46.936Z,78.53
2022-11-05T23:04:51.680Z,77.95
2022-11-05T23:08:12.443Z,77.82
2022-11-05T23:11:38.935Z,76.78
2022-11-05T23:14:40.927Z,76.46
2022-11-05T23:18:01.601Z,76.76
2022-11-05T23:21:23.324Z,76.70
2022-11-05T23:24:25.421Z,76.93
2022-11-05T23:27:33.939Z,77.27
2022-11-05T23:30:36.994Z,77.44
2022-11-05T23:33:39.127Z,76.94
2022-11-05T23:36:59.383Z,76.72
2022-11-05T23:40:01.606Z,76.58
2022-11-05T23:43:22.490Z,76.05
2022-11-05T23:46:43.139Z,75.82
2022-11-05T23:49:45.153Z,75.41
2022-11-05T23:52:47.176Z,75.31
2022-11-05T23:55:49.862Z,75.80
2022-11-05T23:58:51.984Z,75.78
